sensor_id;sensor_type;location;lat;lon;timestamp;P1;durP1;ratioP1;P2;durP2;ratioP2
41221;SDS011;26952;42.884;23.918;2022-12-18T00:00:42;36.58;;;33.83;;
41221;SDS011;26952;42.884;23.918;2022-12-18T00:03:08;35.80;;;33.00;;
41221;SDS011;26952;42.884;23.918;2022-12-18T00:05:34;36.40;;;33.85;;
41221;SDS011;26952;42.884;23.918;2022-12-18T00:08:00;36.40;;;33.72;;
41221;SDS011;26952;42.884;23.918;2022-12-18T00:10:25;34.05;;;31.88;;
41221;SDS011;26952;42.884;23.918;2022-12-18T00:12:52;29.38;;;27.33;;
41221;SDS011;26952;42.884;23.918;2022-12-18T00:15:18;30.38;;;28.27;;
41221;SDS011;26952;42.884;23.918;2022-12-18T00:17:43;30.63;;;28.67;;
41221;SDS011;26952;42.884;23.918;2022-12-18T00:20:09;30.67;;;28.70;;
41221;SDS011;26952;42.884;23.918;2022-12-18T00:22:34;30.42;;;28.30;;
41221;SDS011;26952;42.884;23.918;2022-12-18T00:25:00;30.40;;;28.35;;
41221;SDS011;26952;42.884;23.918;2022-12-18T00:27:25;29.63;;;27.70;;
41221;SDS011;26952;42.884;23.918;2022-12-18T00:29:51;31.33;;;29.17;;
41221;SDS011;26952;42.884;23.918;2022-12-18T00:32:16;30.90;;;28.60;;
41221;SDS011;26952;42.884;23.918;2022-12-18T00:34:42;27.08;;;25.00;;
41221;SDS011;26952;42.884;23.918;2022-12-18T00:37:08;23.02;;;21.13;;
41221;SDS011;26952;42.884;23.918;2022-12-18T00:39:33;24.42;;;22.38;;
41221;SDS011;26952;42.884;23.918;2022-12-18T00:41:58;24.10;;;22.02;;
41221;SDS011;26952;42.884;23.918;2022-12-18T00:44:42;25.17;;;22.98;;
41221;SDS011;26952;42.884;23.918;2022-12-18T00:47:07;27.92;;;25.67;;
41221;SDS011;26952;42.884;23.918;2022-12-18T00:49:33;30.95;;;28.30;;
41221;SDS011;26952;42.884;23.918;2022-12-18T00:51:58;35.42;;;31.67;;
41221;SDS011;26952;42.884;23.918;2022-12-18T00:54:24;35.03;;;31.75;;
41221;SDS011;26952;42.884;23.918;2022-12-18T00:56:49;36.45;;;33.15;;
41221;SDS011;26952;42.884;23.918;2022-12-18T00:59:15;36.17;;;32.90;;
41221;SDS011;26952;42.884;23.918;2022-12-18T01:01:41;40.00;;;36.50;;
41221;SDS011;26952;42.884;23.918;2022-12-18T01:04:07;31.98;;;29.25;;
41221;SDS011;26952;42.884;23.918;2022-12-18T01:06:33;28.58;;;26.13;;
41221;SDS011;26952;42.884;23.918;2022-12-18T01:08:58;26.77;;;24.48;;
41221;SDS011;26952;42.884;23.918;2022-12-18T01:11:23;26.98;;;24.83;;
41221;SDS011;26952;42.884;23.918;2022-12-18T01:13:49;28.17;;;25.67;;
41221;SDS011;26952;42.884;23.918;2022-12-18T01:16:15;30.35;;;27.90;;
41221;SDS011;26952;42.884;23.918;2022-12-18T01:18:41;33.58;;;30.38;;
41221;SDS011;26952;42.884;23.918;2022-12-18T01:21:07;30.65;;;28.20;;
41221;SDS011;26952;42.884;23.918;2022-12-18T01:23:34;31.30;;;28.90;;
41221;SDS011;26952;42.884;23.918;2022-12-18T01:26:07;27.70;;;25.48;;
41221;SDS011;26952;42.884;23.918;2022-12-18T01:28:34;29.98;;;27.23;;
41221;SDS011;26952;42.884;23.918;2022-12-18T01:31:19;29.83;;;27.42;;
41221;SDS011;26952;42.884;23.918;2022-12-18T01:33:47;31.75;;;28.77;;
41221;SDS011;26952;42.884;23.918;2022-12-18T01:36:19;31.35;;;28.55;;
41221;SDS011;26952;42.884;23.918;2022-12-18T01:38:46;25.45;;;23.27;;
41221;SDS011;26952;42.884;23.918;2022-12-18T01:41:13;28.25;;;25.58;;
41221;SDS011;26952;42.884;23.918;2022-12-18T01:43:56;27.23;;;24.95;;
41221;SDS011;26952;42.884;23.918;2022-12-18T01:46:23;23.70;;;21.67;;
41221;SDS011;26952;42.884;23.918;2022-12-18T01:48:50;25.30;;;23.10;;
41221;SDS011;26952;42.884;23.918;2022-12-18T01:51:18;24.85;;;22.73;;
41221;SDS011;26952;42.884;23.918;2022-12-18T01:53:44;26.00;;;23.50;;
41221;SDS011;26952;42.884;23.918;2022-12-18T01:56:15;26.73;;;24.30;;
41221;SDS011;26952;42.884;23.918;2022-12-18T02:01:25;27.75;;;25.15;;
41221;SDS011;26952;42.884;23.918;2022-12-18T02:03:52;27.35;;;24.90;;
41221;SDS011;26952;42.884;23.918;2022-12-18T02:06:26;27.25;;;24.85;;
41221;SDS011;26952;42.884;23.918;2022-12-18T02:09:14;29.67;;;27.33;;
41221;SDS011;26952;42.884;23.918;2022-12-18T02:12:05;31.15;;;28.42;;
41221;SDS011;26952;42.884;23.918;2022-12-18T02:14:55;30.77;;;27.42;;
41221;SDS011;26952;42.884;23.918;2022-12-18T02:23:09;23.48;;;21.15;;
41221;SDS011;26952;42.884;23.918;2022-12-18T02:28:27;21.58;;;19.52;;
41221;SDS011;26952;42.884;23.918;2022-12-18T02:30:59;22.65;;;20.48;;
41221;SDS011;26952;42.884;23.918;2022-12-18T02:33:27;22.17;;;19.95;;
41221;SDS011;26952;42.884;23.918;2022-12-18T02:35:55;24.88;;;22.35;;
41221;SDS011;26952;42.884;23.918;2022-12-18T02:38:23;24.45;;;22.08;;
41221;SDS011;26952;42.884;23.918;2022-12-18T02:40:50;26.02;;;23.83;;
41221;SDS011;26952;42.884;23.918;2022-12-18T02:43:18;24.33;;;22.23;;
41221;SDS011;26952;42.884;23.918;2022-12-18T02:45:52;25.63;;;23.33;;
41221;SDS011;26952;42.884;23.918;2022-12-18T02:48:21;78.55;;;26.60;;
41221;SDS011;26952;42.884;23.918;2022-12-18T02:51:04;57.38;;;26.60;;
41221;SDS011;26952;42.884;23.918;2022-12-18T02:53:48;33.92;;;24.42;;
41221;SDS011;26952;42.884;23.918;2022-12-18T02:56:35;27.38;;;24.98;;
41221;SDS011;26952;42.884;23.918;2022-12-18T02:59:13;27.80;;;25.35;;
41221;SDS011;26952;42.884;23.918;2022-12-18T03:04:20;27.67;;;25.42;;
41221;SDS011;26952;42.884;23.918;2022-12-18T03:07:06;24.67;;;22.27;;
41221;SDS011;26952;42.884;23.918;2022-12-18T03:09:41;26.38;;;24.25;;
41221;SDS011;26952;42.884;23.918;2022-12-18T03:12:15;26.75;;;24.63;;
41221;SDS011;26952;42.884;23.918;2022-12-18T03:15:08;27.38;;;25.20;;
41221;SDS011;26952;42.884;23.918;2022-12-18T03:17:42;25.35;;;23.17;;
41221;SDS011;26952;42.884;23.918;2022-12-18T03:20:17;26.88;;;24.70;;
41221;SDS011;26952;42.884;23.918;2022-12-18T03:22:46;25.20;;;23.27;;
41221;SDS011;26952;42.884;23.918;2022-12-18T03:25:14;25.58;;;23.63;;
41221;SDS011;26952;42.884;23.918;2022-12-18T03:27:44;26.77;;;24.90;;
41221;SDS011;26952;42.884;23.918;2022-12-18T03:30:13;25.95;;;24.23;;
41221;SDS011;26952;42.884;23.918;2022-12-18T03:32:50;27.77;;;25.80;;
41221;SDS011;26952;42.884;23.918;2022-12-18T03:35:25;27.25;;;25.13;;
41221;SDS011;26952;42.884;23.918;2022-12-18T03:37:54;191.85;;;29.02;;
41221;SDS011;26952;42.884;23.918;2022-12-18T03:40:24;130.05;;;25.85;;
41221;SDS011;26952;42.884;23.918;2022-12-18T03:45:54;390.33;;;34.92;;
41221;SDS011;26952;42.884;23.918;2022-12-18T03:48:44;572.47;;;41.72;;
41221;SDS011;26952;42.884;23.918;2022-12-18T03:51:19;649.50;;;43.85;;
41221;SDS011;26952;42.884;23.918;2022-12-18T03:53:50;685.58;;;54.00;;
41221;SDS011;26952;42.884;23.918;2022-12-18T03:56:21;702.40;;;65.70;;
41221;SDS011;26952;42.884;23.918;2022-12-18T03:58:48;297.13;;;29.83;;
41221;SDS011;26952;42.884;23.918;2022-12-18T04:01:17;414.00;;;33.60;;
41221;SDS011;26952;42.884;23.918;2022-12-18T04:03:49;625.92;;;53.05;;
41221;SDS011;26952;42.884;23.918;2022-12-18T04:06:16;26.45;;;21.48;;
41221;SDS011;26952;42.884;23.918;2022-12-18T04:08:42;21.80;;;20.33;;
41221;SDS011;26952;42.884;23.918;2022-12-18T04:11:08;23.73;;;21.30;;
41221;SDS011;26952;42.884;23.918;2022-12-18T04:13:35;21.40;;;19.88;;
41221;SDS011;26952;42.884;23.918;2022-12-18T04:16:02;35.70;;;19.90;;
41221;SDS011;26952;42.884;23.918;2022-12-18T04:18:27;20.48;;;18.88;;
41221;SDS011;26952;42.884;23.918;2022-12-18T04:20:53;57.40;;;20.48;;
41221;SDS011;26952;42.884;23.918;2022-12-18T04:23:18;18.83;;;17.23;;
41221;SDS011;26952;42.884;23.918;2022-12-18T04:25:43;19.02;;;17.33;;
41221;SDS011;26952;42.884;23.918;2022-12-18T04:28:10;18.83;;;17.25;;
41221;SDS011;26952;42.884;23.918;2022-12-18T04:30:35;19.10;;;17.48;;
41221;SDS011;26952;42.884;23.918;2022-12-18T04:33:00;18.70;;;16.90;;
41221;SDS011;26952;42.884;23.918;2022-12-18T04:35:26;19.48;;;17.88;;
41221;SDS011;26952;42.884;23.918;2022-12-18T04:37:51;19.35;;;17.80;;
41221;SDS011;26952;42.884;23.918;2022-12-18T04:40:17;20.25;;;18.50;;
41221;SDS011;26952;42.884;23.918;2022-12-18T04:42:42;22.67;;;20.77;;
41221;SDS011;26952;42.884;23.918;2022-12-18T04:45:08;24.23;;;21.92;;
41221;SDS011;26952;42.884;23.918;2022-12-18T04:47:33;55.75;;;20.90;;
41221;SDS011;26952;42.884;23.918;2022-12-18T04:49:59;247.40;;;25.92;;
41221;SDS011;26952;42.884;23.918;2022-12-18T04:52:24;515.85;;;36.47;;
41221;SDS011;26952;42.884;23.918;2022-12-18T04:54:50;493.27;;;36.78;;
41221;SDS011;26952;42.884;23.918;2022-12-18T04:57:15;711.13;;;61.83;;
41221;SDS011;26952;42.884;23.918;2022-12-18T04:59:40;22.85;;;20.55;;
41221;SDS011;26952;42.884;23.918;2022-12-18T05:02:06;31.52;;;15.70;;
41221;SDS011;26952;42.884;23.918;2022-12-18T05:04:31;17.02;;;14.07;;
41221;SDS011;26952;42.884;23.918;2022-12-18T05:06:57;17.95;;;14.65;;
41221;SDS011;26952;42.884;23.918;2022-12-18T05:09:22;26.10;;;17.65;;
41221;SDS011;26952;42.884;23.918;2022-12-18T05:11:48;21.35;;;16.80;;
41221;SDS011;26952;42.884;23.918;2022-12-18T05:14:13;26.92;;;20.67;;
41221;SDS011;26952;42.884;23.918;2022-12-18T05:16:40;22.70;;;17.58;;
41221;SDS011;26952;42.884;23.918;2022-12-18T05:19:05;16.35;;;14.00;;
41221;SDS011;26952;42.884;23.918;2022-12-18T05:21:30;20.90;;;15.57;;
41221;SDS011;26952;42.884;23.918;2022-12-18T05:23:56;20.70;;;17.42;;
41221;SDS011;26952;42.884;23.918;2022-12-18T05:26:21;20.77;;;17.45;;
41221;SDS011;26952;42.884;23.918;2022-12-18T05:28:47;21.92;;;17.65;;
41221;SDS011;26952;42.884;23.918;2022-12-18T05:31:12;24.15;;;18.40;;
41221;SDS011;26952;42.884;23.918;2022-12-18T05:33:38;23.92;;;18.50;;
41221;SDS011;26952;42.884;23.918;2022-12-18T05:36:05;21.60;;;17.70;;
41221;SDS011;26952;42.884;23.918;2022-12-18T05:38:32;19.08;;;17.00;;
41221;SDS011;26952;42.884;23.918;2022-12-18T05:40:59;21.05;;;16.30;;
41221;SDS011;26952;42.884;23.918;2022-12-18T05:43:25;89.95;;;26.25;;
41221;SDS011;26952;42.884;23.918;2022-12-18T05:45:51;85.20;;;22.10;;
41221;SDS011;26952;42.884;23.918;2022-12-18T05:48:18;586.88;;;44.58;;
41221;SDS011;26952;42.884;23.918;2022-12-18T05:50:44;729.88;;;49.03;;
41221;SDS011;26952;42.884;23.918;2022-12-18T05:53:11;271.40;;;25.83;;
41221;SDS011;26952;42.884;23.918;2022-12-18T05:55:38;169.45;;;22.52;;
41221;SDS011;26952;42.884;23.918;2022-12-18T05:58:05;20.08;;;17.15;;
41221;SDS011;26952;42.884;23.918;2022-12-18T06:00:32;16.90;;;15.10;;
41221;SDS011;26952;42.884;23.918;2022-12-18T06:02:59;18.92;;;16.60;;
41221;SDS011;26952;42.884;23.918;2022-12-18T06:05:25;20.08;;;17.73;;
41221;SDS011;26952;42.884;23.918;2022-12-18T06:07:51;24.33;;;19.80;;
41221;SDS011;26952;42.884;23.918;2022-12-18T06:10:17;21.05;;;18.83;;
41221;SDS011;26952;42.884;23.918;2022-12-18T06:12:42;20.80;;;18.85;;
41221;SDS011;26952;42.884;23.918;2022-12-18T06:15:08;20.55;;;18.65;;
41221;SDS011;26952;42.884;23.918;2022-12-18T06:17:33;20.80;;;18.80;;
41221;SDS011;26952;42.884;23.918;2022-12-18T06:20:00;16.73;;;15.35;;
41221;SDS011;26952;42.884;23.918;2022-12-18T06:22:26;18.40;;;16.90;;
41221;SDS011;26952;42.884;23.918;2022-12-18T06:24:52;17.02;;;15.63;;
41221;SDS011;26952;42.884;23.918;2022-12-18T06:27:18;15.27;;;14.15;;
41221;SDS011;26952;42.884;23.918;2022-12-18T06:29:43;15.05;;;14.05;;
41221;SDS011;26952;42.884;23.918;2022-12-18T06:32:09;13.80;;;12.90;;
41221;SDS011;26952;42.884;23.918;2022-12-18T06:34:34;15.18;;;14.20;;
41221;SDS011;26952;42.884;23.918;2022-12-18T06:37:02;12.75;;;11.95;;
41221;SDS011;26952;42.884;23.918;2022-12-18T06:39:27;12.15;;;11.38;;
41221;SDS011;26952;42.884;23.918;2022-12-18T06:41:53;13.70;;;12.60;;
41221;SDS011;26952;42.884;23.918;2022-12-18T06:44:18;11.85;;;10.95;;
41221;SDS011;26952;42.884;23.918;2022-12-18T06:46:44;13.50;;;12.40;;
41221;SDS011;26952;42.884;23.918;2022-12-18T06:49:10;12.52;;;11.45;;
41221;SDS011;26952;42.884;23.918;2022-12-18T06:51:35;12.75;;;11.70;;
41221;SDS011;26952;42.884;23.918;2022-12-18T06:54:01;13.25;;;12.05;;
41221;SDS011;26952;42.884;23.918;2022-12-18T06:56:26;16.00;;;14.68;;
41221;SDS011;26952;42.884;23.918;2022-12-18T06:58:52;12.13;;;11.10;;
41221;SDS011;26952;42.884;23.918;2022-12-18T07:01:18;11.40;;;10.60;;
41221;SDS011;26952;42.884;23.918;2022-12-18T07:03:43;13.18;;;12.27;;
41221;SDS011;26952;42.884;23.918;2022-12-18T07:06:14;10.93;;;10.27;;
41221;SDS011;26952;42.884;23.918;2022-12-18T07:08:41;13.13;;;12.23;;
41221;SDS011;26952;42.884;23.918;2022-12-18T07:11:07;16.08;;;14.48;;
41221;SDS011;26952;42.884;23.918;2022-12-18T07:13:32;13.77;;;12.18;;
41221;SDS011;26952;42.884;23.918;2022-12-18T07:18:33;11.23;;;10.18;;
41221;SDS011;26952;42.884;23.918;2022-12-18T07:21:02;11.60;;;10.50;;
41221;SDS011;26952;42.884;23.918;2022-12-18T07:23:31;11.90;;;10.90;;
41221;SDS011;26952;42.884;23.918;2022-12-18T07:26:00;12.50;;;11.30;;
41221;SDS011;26952;42.884;23.918;2022-12-18T07:28:27;13.00;;;11.98;;
41221;SDS011;26952;42.884;23.918;2022-12-18T07:30:52;33.20;;;28.27;;
41221;SDS011;26952;42.884;23.918;2022-12-18T07:33:18;15.13;;;13.52;;
41221;SDS011;26952;42.884;23.918;2022-12-18T07:35:43;10.15;;;9.15;;
41221;SDS011;26952;42.884;23.918;2022-12-18T07:38:08;13.02;;;11.77;;
41221;SDS011;26952;42.884;23.918;2022-12-18T07:40:34;14.23;;;12.98;;
41221;SDS011;26952;42.884;23.918;2022-12-18T07:42:59;13.85;;;12.57;;
41221;SDS011;26952;42.884;23.918;2022-12-18T07:45:24;15.55;;;14.05;;
41221;SDS011;26952;42.884;23.918;2022-12-18T07:47:50;14.50;;;13.15;;
41221;SDS011;26952;42.884;23.918;2022-12-18T07:50:15;15.52;;;14.07;;
41221;SDS011;26952;42.884;23.918;2022-12-18T07:52:41;16.00;;;14.48;;
41221;SDS011;26952;42.884;23.918;2022-12-18T07:55:06;17.67;;;14.27;;
41221;SDS011;26952;42.884;23.918;2022-12-18T07:57:32;11.65;;;10.68;;
41221;SDS011;26952;42.884;23.918;2022-12-18T07:59:57;11.15;;;10.25;;
41221;SDS011;26952;42.884;23.918;2022-12-18T08:02:23;10.40;;;9.60;;
41221;SDS011;26952;42.884;23.918;2022-12-18T08:04:48;11.05;;;10.25;;
41221;SDS011;26952;42.884;23.918;2022-12-18T08:07:13;11.07;;;10.27;;
41221;SDS011;26952;42.884;23.918;2022-12-18T08:09:39;10.50;;;9.68;;
41221;SDS011;26952;42.884;23.918;2022-12-18T08:12:04;10.35;;;9.45;;
41221;SDS011;26952;42.884;23.918;2022-12-18T08:14:30;11.00;;;10.15;;
41221;SDS011;26952;42.884;23.918;2022-12-18T08:16:55;12.13;;;11.23;;
41221;SDS011;26952;42.884;23.918;2022-12-18T08:19:21;11.30;;;10.60;;
41221;SDS011;26952;42.884;23.918;2022-12-18T08:21:46;11.35;;;10.55;;
41221;SDS011;26952;42.884;23.918;2022-12-18T08:24:11;12.98;;;11.20;;
41221;SDS011;26952;42.884;23.918;2022-12-18T08:26:37;10.07;;;9.35;;
41221;SDS011;26952;42.884;23.918;2022-12-18T08:29:02;8.73;;;8.13;;
41221;SDS011;26952;42.884;23.918;2022-12-18T08:31:28;7.70;;;7.10;;
41221;SDS011;26952;42.884;23.918;2022-12-18T08:33:55;6.68;;;6.18;;
41221;SDS011;26952;42.884;23.918;2022-12-18T08:36:21;6.43;;;5.93;;
41221;SDS011;26952;42.884;23.918;2022-12-18T08:38:47;6.68;;;5.95;;
41221;SDS011;26952;42.884;23.918;2022-12-18T08:41:14;6.55;;;6.05;;
41221;SDS011;26952;42.884;23.918;2022-12-18T08:43:40;7.38;;;6.68;;
41221;SDS011;26952;42.884;23.918;2022-12-18T08:46:25;7.53;;;6.88;;
41221;SDS011;26952;42.884;23.918;2022-12-18T08:48:52;7.35;;;6.85;;
41221;SDS011;26952;42.884;23.918;2022-12-18T08:51:19;7.10;;;6.60;;
41221;SDS011;26952;42.884;23.918;2022-12-18T08:53:44;8.55;;;7.95;;
41221;SDS011;26952;42.884;23.918;2022-12-18T08:56:10;11.90;;;10.98;;
41221;SDS011;26952;42.884;23.918;2022-12-18T08:58:37;20.33;;;19.20;;
41221;SDS011;26952;42.884;23.918;2022-12-18T09:01:03;17.98;;;16.80;;
41221;SDS011;26952;42.884;23.918;2022-12-18T09:03:30;18.92;;;17.83;;
41221;SDS011;26952;42.884;23.918;2022-12-18T09:05:56;18.50;;;17.00;;
41221;SDS011;26952;42.884;23.918;2022-12-18T09:08:22;14.43;;;13.43;;
41221;SDS011;26952;42.884;23.918;2022-12-18T09:10:48;9.57;;;8.98;;
41221;SDS011;26952;42.884;23.918;2022-12-18T09:13:15;10.07;;;9.48;;
41221;SDS011;26952;42.884;23.918;2022-12-18T09:15:45;10.23;;;9.63;;
41221;SDS011;26952;42.884;23.918;2022-12-18T09:18:12;19.52;;;18.48;;
41221;SDS011;26952;42.884;23.918;2022-12-18T09:20:39;12.32;;;11.52;;
41221;SDS011;26952;42.884;23.918;2022-12-18T09:23:05;12.50;;;11.70;;
41221;SDS011;26952;42.884;23.918;2022-12-18T09:25:31;14.10;;;13.35;;
41221;SDS011;26952;42.884;23.918;2022-12-18T09:28:19;16.40;;;15.40;;
41221;SDS011;26952;42.884;23.918;2022-12-18T09:30:47;15.60;;;14.50;;
41221;SDS011;26952;42.884;23.918;2022-12-18T09:33:14;12.60;;;11.77;;
41221;SDS011;26952;42.884;23.918;2022-12-18T09:35:40;16.08;;;15.10;;
41221;SDS011;26952;42.884;23.918;2022-12-18T09:38:08;24.67;;;23.35;;
41221;SDS011;26952;42.884;23.918;2022-12-18T09:40:40;9.85;;;9.15;;
41221;SDS011;26952;42.884;23.918;2022-12-18T09:43:35;10.63;;;9.90;;
41221;SDS011;26952;42.884;23.918;2022-12-18T09:46:03;9.95;;;9.25;;
41221;SDS011;26952;42.884;23.918;2022-12-18T09:48:36;12.23;;;11.43;;
41221;SDS011;26952;42.884;23.918;2022-12-18T09:51:11;14.00;;;13.18;;
41221;SDS011;26952;42.884;23.918;2022-12-18T09:53:41;15.02;;;13.95;;
41221;SDS011;26952;42.884;23.918;2022-12-18T09:56:12;16.10;;;15.10;;
41221;SDS011;26952;42.884;23.918;2022-12-18T09:58:45;14.40;;;13.27;;
41221;SDS011;26952;42.884;23.918;2022-12-18T10:01:16;12.65;;;11.82;;
41221;SDS011;26952;42.884;23.918;2022-12-18T10:03:45;14.70;;;13.65;;
41221;SDS011;26952;42.884;23.918;2022-12-18T10:06:32;17.23;;;16.13;;
41221;SDS011;26952;42.884;23.918;2022-12-18T10:11:59;11.90;;;11.00;;
41221;SDS011;26952;42.884;23.918;2022-12-18T10:27:47;7.88;;;6.97;;
41221;SDS011;26952;42.884;23.918;2022-12-18T10:30:17;17.90;;;16.60;;
41221;SDS011;26952;42.884;23.918;2022-12-18T10:32:44;13.20;;;12.25;;
41221;SDS011;26952;42.884;23.918;2022-12-18T10:35:18;15.30;;;14.35;;
41221;SDS011;26952;42.884;23.918;2022-12-18T10:43:36;12.52;;;11.70;;
41221;SDS011;26952;42.884;23.918;2022-12-18T10:51:19;13.00;;;11.90;;
41221;SDS011;26952;42.884;23.918;2022-12-18T10:53:50;10.18;;;9.18;;
41221;SDS011;26952;42.884;23.918;2022-12-18T10:56:19;6.90;;;6.40;;
41221;SDS011;26952;42.884;23.918;2022-12-18T10:58:55;7.05;;;6.40;;
41221;SDS011;26952;42.884;23.918;2022-12-18T11:01:26;8.18;;;7.47;;
41221;SDS011;26952;42.884;23.918;2022-12-18T11:06:18;8.77;;;7.95;;
41221;SDS011;26952;42.884;23.918;2022-12-18T11:11:32;10.82;;;9.85;;
41221;SDS011;26952;42.884;23.918;2022-12-18T11:13:59;12.80;;;11.70;;
41221;SDS011;26952;42.884;23.918;2022-12-18T11:16:44;11.90;;;10.90;;
41221;SDS011;26952;42.884;23.918;2022-12-18T11:19:17;10.93;;;10.10;;
41221;SDS011;26952;42.884;23.918;2022-12-18T11:22:01;12.05;;;9.15;;
41221;SDS011;26952;42.884;23.918;2022-12-18T11:24:42;8.38;;;7.38;;
41221;SDS011;26952;42.884;23.918;2022-12-18T11:27:15;7.75;;;6.97;;
41221;SDS011;26952;42.884;23.918;2022-12-18T11:29:43;9.60;;;8.60;;
41221;SDS011;26952;42.884;23.918;2022-12-18T11:34:40;6.75;;;6.13;;
41221;SDS011;26952;42.884;23.918;2022-12-18T11:37:09;7.18;;;5.57;;
41221;SDS011;26952;42.884;23.918;2022-12-18T11:39:40;5.85;;;4.70;;
41221;SDS011;26952;42.884;23.918;2022-12-18T11:50:24;6.40;;;5.43;;
41221;SDS011;26952;42.884;23.918;2022-12-18T11:52:51;7.28;;;5.75;;
41221;SDS011;26952;42.884;23.918;2022-12-18T11:55:24;5.63;;;4.45;;
41221;SDS011;26952;42.884;23.918;2022-12-18T12:09:27;6.25;;;5.75;;
41221;SDS011;26952;42.884;23.918;2022-12-18T12:12:26;10.32;;;9.43;;
41221;SDS011;26952;42.884;23.918;2022-12-18T12:15:17;10.80;;;9.98;;
41221;SDS011;26952;42.884;23.918;2022-12-18T12:34:18;9.20;;;5.88;;
41221;SDS011;26952;42.884;23.918;2022-12-18T12:37:35;6.43;;;5.43;;
41221;SDS011;26952;42.884;23.918;2022-12-18T12:39:55;7.35;;;5.20;;
41221;SDS011;26952;42.884;23.918;2022-12-18T12:42:27;6.55;;;5.60;;
41221;SDS011;26952;42.884;23.918;2022-12-18T12:45:18;6.65;;;5.40;;
41221;SDS011;26952;42.884;23.918;2022-12-18T12:47:53;8.15;;;4.78;;
41221;SDS011;26952;42.884;23.918;2022-12-18T12:50:20;6.35;;;4.70;;
41221;SDS011;26952;42.884;23.918;2022-12-18T12:52:49;6.38;;;4.60;;
41221;SDS011;26952;42.884;23.918;2022-12-18T12:58:06;6.65;;;4.90;;
41221;SDS011;26952;42.884;23.918;2022-12-18T13:00:44;5.63;;;4.43;;
41221;SDS011;26952;42.884;23.918;2022-12-18T13:05:54;5.88;;;4.50;;
41221;SDS011;26952;42.884;23.918;2022-12-18T13:08:29;6.72;;;5.80;;
41221;SDS011;26952;42.884;23.918;2022-12-18T13:10:57;5.90;;;5.30;;
41221;SDS011;26952;42.884;23.918;2022-12-18T13:13:52;5.88;;;5.28;;
41221;SDS011;26952;42.884;23.918;2022-12-18T13:16:23;9.45;;;7.45;;
41221;SDS011;26952;42.884;23.918;2022-12-18T13:21:23;6.40;;;5.75;;
41221;SDS011;26952;42.884;23.918;2022-12-18T13:23:52;11.13;;;8.70;;
41221;SDS011;26952;42.884;23.918;2022-12-18T13:34:14;9.15;;;7.90;;
41221;SDS011;26952;42.884;23.918;2022-12-18T13:36:42;9.52;;;8.02;;
41221;SDS011;26952;42.884;23.918;2022-12-18T13:39:15;12.10;;;9.73;;
41221;SDS011;26952;42.884;23.918;2022-12-18T13:41:50;7.07;;;5.95;;
41221;SDS011;26952;42.884;23.918;2022-12-18T13:46:57;9.13;;;8.32;;
41221;SDS011;26952;42.884;23.918;2022-12-18T13:51:53;7.45;;;6.72;;
41221;SDS011;26952;42.884;23.918;2022-12-18T13:57:02;7.95;;;7.05;;
41221;SDS011;26952;42.884;23.918;2022-12-18T13:59:39;6.97;;;6.28;;
41221;SDS011;26952;42.884;23.918;2022-12-18T14:02:15;8.00;;;7.20;;
41221;SDS011;26952;42.884;23.918;2022-12-18T14:04:45;8.18;;;6.95;;
41221;SDS011;26952;42.884;23.918;2022-12-18T14:09:52;10.02;;;9.02;;
41221;SDS011;26952;42.884;23.918;2022-12-18T14:12:21;15.07;;;12.68;;
41221;SDS011;26952;42.884;23.918;2022-12-18T14:15:29;12.55;;;11.35;;
41221;SDS011;26952;42.884;23.918;2022-12-18T14:17:59;14.25;;;12.93;;
41221;SDS011;26952;42.884;23.918;2022-12-18T14:20:28;14.43;;;12.98;;
41221;SDS011;26952;42.884;23.918;2022-12-18T14:22:57;17.52;;;11.40;;
41221;SDS011;26952;42.884;23.918;2022-12-18T14:27:59;11.43;;;9.57;;
41221;SDS011;26952;42.884;23.918;2022-12-18T14:30:41;11.82;;;10.63;;
41221;SDS011;26952;42.884;23.918;2022-12-18T14:35:38;16.33;;;11.15;;
41221;SDS011;26952;42.884;23.918;2022-12-18T14:40:54;16.83;;;11.52;;
41221;SDS011;26952;42.884;23.918;2022-12-18T14:43:28;22.40;;;15.10;;
41221;SDS011;26952;42.884;23.918;2022-12-18T14:45:56;18.02;;;14.07;;
41221;SDS011;26952;42.884;23.918;2022-12-18T14:51:18;14.23;;;11.70;;
41221;SDS011;26952;42.884;23.918;2022-12-18T14:56:20;12.88;;;9.50;;
41221;SDS011;26952;42.884;23.918;2022-12-18T14:58:50;15.25;;;10.68;;
41221;SDS011;26952;42.884;23.918;2022-12-18T15:01:21;14.00;;;9.65;;
41221;SDS011;26952;42.884;23.918;2022-12-18T15:03:52;10.52;;;8.38;;
41221;SDS011;26952;42.884;23.918;2022-12-18T15:08:59;12.07;;;9.43;;
41221;SDS011;26952;42.884;23.918;2022-12-18T15:11:32;16.38;;;9.85;;
41221;SDS011;26952;42.884;23.918;2022-12-18T15:14:21;13.93;;;10.35;;
41221;SDS011;26952;42.884;23.918;2022-12-18T15:16:57;13.45;;;10.20;;
41221;SDS011;26952;42.884;23.918;2022-12-18T15:19:46;13.50;;;9.57;;
41221;SDS011;26952;42.884;23.918;2022-12-18T15:22:20;12.02;;;8.30;;
41221;SDS011;26952;42.884;23.918;2022-12-18T15:24:46;9.65;;;7.75;;
41221;SDS011;26952;42.884;23.918;2022-12-18T15:32:36;9.32;;;7.68;;
41221;SDS011;26952;42.884;23.918;2022-12-18T15:37:38;7.63;;;6.10;;
41221;SDS011;26952;42.884;23.918;2022-12-18T15:40:04;8.40;;;7.70;;
41221;SDS011;26952;42.884;23.918;2022-12-18T15:42:30;9.57;;;7.82;;
41221;SDS011;26952;42.884;23.918;2022-12-18T15:45:28;8.15;;;7.05;;
41221;SDS011;26952;42.884;23.918;2022-12-18T15:47:53;9.20;;;6.90;;
41221;SDS011;26952;42.884;23.918;2022-12-18T15:50:19;8.23;;;6.93;;
41221;SDS011;26952;42.884;23.918;2022-12-18T15:52:45;8.75;;;6.47;;
41221;SDS011;26952;42.884;23.918;2022-12-18T15:55:19;6.95;;;5.68;;
41221;SDS011;26952;42.884;23.918;2022-12-18T15:58:05;6.00;;;5.32;;
41221;SDS011;26952;42.884;23.918;2022-12-18T16:00:32;8.30;;;6.28;;
41221;SDS011;26952;42.884;23.918;2022-12-18T16:02:59;7.50;;;6.70;;
41221;SDS011;26952;42.884;23.918;2022-12-18T16:05:25;7.18;;;6.47;;
41221;SDS011;26952;42.884;23.918;2022-12-18T16:07:52;9.02;;;8.13;;
41221;SDS011;26952;42.884;23.918;2022-12-18T16:10:18;6.05;;;5.35;;
41221;SDS011;26952;42.884;23.918;2022-12-18T16:12:44;7.00;;;6.40;;
41221;SDS011;26952;42.884;23.918;2022-12-18T16:15:11;7.63;;;6.93;;
41221;SDS011;26952;42.884;23.918;2022-12-18T16:17:38;8.93;;;7.38;;
41221;SDS011;26952;42.884;23.918;2022-12-18T16:20:05;7.82;;;7.18;;
41221;SDS011;26952;42.884;23.918;2022-12-18T16:22:31;8.80;;;8.10;;
41221;SDS011;26952;42.884;23.918;2022-12-18T16:24:57;8.93;;;8.13;;
41221;SDS011;26952;42.884;23.918;2022-12-18T16:27:23;8.93;;;8.23;;
41221;SDS011;26952;42.884;23.918;2022-12-18T16:29:49;7.35;;;6.75;;
41221;SDS011;26952;42.884;23.918;2022-12-18T16:32:19;9.07;;;8.38;;
41221;SDS011;26952;42.884;23.918;2022-12-18T16:34:46;8.63;;;7.85;;
41221;SDS011;26952;42.884;23.918;2022-12-18T16:37:13;9.13;;;8.23;;
41221;SDS011;26952;42.884;23.918;2022-12-18T16:39:39;9.45;;;8.68;;
41221;SDS011;26952;42.884;23.918;2022-12-18T16:42:06;8.50;;;7.72;;
41221;SDS011;26952;42.884;23.918;2022-12-18T16:44:37;9.27;;;8.38;;
41221;SDS011;26952;42.884;23.918;2022-12-18T16:47:03;9.05;;;7.80;;
41221;SDS011;26952;42.884;23.918;2022-12-18T16:49:28;10.13;;;8.55;;